Time;durP1;ratioP1;P1;durP2;ratioP2;P2;SDS_P1;SDS_P2;PMS_P1;PMS_P2;Temp;Humidity;BMP_temperature;BMP_pressure;BME280_temperature;BME280_humidity;BME280_pressure;Samples;Min_cycle;Max_cycle;Signal;HPM_P1;HPM_P2
2022/10/20 00:01:06;;;;;;;7.85;2.20;;;3.40;99.90;;;;;;5032529;28;20025;-69
2022/10/20 00:03:32;;;;;;;7.93;2.67;;;3.40;99.90;;;;;;5034842;28;20025;-69
2022/10/20 00:06:12;;;;;;;2.47;1.95;;;3.50;99.90;;;;;;5032328;28;20030;-69
2022/10/20 00:08:39;;;;;;;3.00;2.38;;;3.50;99.90;;;;;;5014880;28;20033;-69
2022/10/20 00:11:06;;;;;;;4.43;2.35;;;3.50;99.90;;;;;;5014569;28;20116;-69
2022/10/20 00:13:32;;;;;;;6.90;2.17;;;3.60;99.90;;;;;;5018656;28;20040;-69
2022/10/20 00:15:58;;;;;;;3.03;2.40;;;3.60;99.90;;;;;;5034070;28;20025;-69
2022/10/20 00:18:24;;;;;;;7.22;3.05;;;3.60;99.90;;;;;;5029515;28;20022;-68
2022/10/20 00:20:51;;;;;;;5.60;2.25;;;3.60;99.90;;;;;;5034064;28;20018;-69
2022/10/20 00:23:16;;;;;;;8.15;3.00;;;3.70;99.90;;;;;;5032018;28;20036;-69
2022/10/20 00:25:42;;;;;;;4.60;2.72;;;3.70;99.90;;;;;;5034393;28;20029;-69
2022/10/20 00:28:08;;;;;;;4.82;2.78;;;3.80;99.90;;;;;;5030046;28;20033;-69
2022/10/20 00:30:34;;;;;;;9.40;3.33;;;3.80;99.90;;;;;;5014263;28;20037;-69
2022/10/20 00:33:01;;;;;;;6.10;3.13;;;3.90;99.90;;;;;;5014300;28;20057;-69
2022/10/20 00:35:27;;;;;;;10.55;3.67;;;4.00;99.90;;;;;;5014132;28;20385;-69
2022/10/20 00:37:53;;;;;;;5.35;3.45;;;4.10;99.90;;;;;;5014202;28;20025;-69
2022/10/20 00:40:18;;;;;;;8.10;3.10;;;4.10;99.90;;;;;;5014622;28;20029;-69
2022/10/20 00:42:45;;;;;;;9.45;4.10;;;4.20;99.90;;;;;;5014095;28;20030;-69
2022/10/20 00:45:19;;;;;;;7.07;3.90;;;4.20;99.90;;;;;;5014314;28;20040;-69
2022/10/20 00:47:51;;;;;;;5.32;3.72;;;4.30;99.90;;;;;;5019019;28;20025;-69
2022/10/20 00:50:39;;;;;;;7.80;4.38;;;4.40;99.90;;;;;;5033476;28;20030;-69
2022/10/20 00:53:05;;;;;;;10.98;4.53;;;4.40;99.90;;;;;;5033711;28;20493;-69
2022/10/20 00:55:34;;;;;;;9.23;3.92;;;4.50;99.90;;;;;;5028678;28;20021;-69
2022/10/20 00:58:01;;;;;;;10.40;4.32;;;4.50;99.90;;;;;;5033835;28;20032;-69
2022/10/20 01:00:28;;;;;;;14.60;4.55;;;4.50;99.90;;;;;;5033359;28;20029;-69
2022/10/20 01:02:57;;;;;;;9.60;4.97;;;4.50;99.90;;;;;;5033595;28;20033;-69
2022/10/20 01:05:23;;;;;;;5.47;3.47;;;4.50;99.90;;;;;;5033465;28;20037;-69
2022/10/20 01:07:49;;;;;;;5.78;3.75;;;4.50;99.90;;;;;;5033470;28;20511;-69
2022/10/20 01:10:15;;;;;;;6.72;4.10;;;4.40;99.90;;;;;;5033340;28;20061;-69
2022/10/20 01:12:59;;;;;;;4.97;3.50;;;4.40;99.90;;;;;;5033319;28;20057;-69
2022/10/20 01:15:34;;;;;;;;;;;4.40;99.90;;;;;;5030755;28;20029;-69
2022/10/20 01:18:12;;;;;;;7.18;3.33;;;4.40;99.90;;;;;;5021258;28;19999;-69
2022/10/20 01:21:03;;;;;;;5.50;3.95;;;4.40;99.90;;;;;;5032177;28;20574;-69
2022/10/20 01:24:06;;;;;;;6.00;3.88;;;4.30;99.90;;;;;;5019878;28;20496;-69
2022/10/20 01:27:08;;;;;;;10.07;5.05;;;4.40;99.90;;;;;;5013148;28;20033;-69
2022/10/20 01:29:49;;;;;;;6.72;4.20;;;4.50;99.90;;;;;;5014038;28;20029;-69
2022/10/20 01:32:23;;;;;;;9.05;4.45;;;4.50;99.90;;;;;;5013457;28;20080;-69
2022/10/20 01:34:58;;;;;;;7.03;4.38;;;4.60;99.90;;;;;;5013634;28;20026;-69
2022/10/20 01:37:41;;;;;;;12.27;5.07;;;4.70;99.90;;;;;;5013454;28;20022;-69
2022/10/20 01:40:17;;;;;;;13.73;4.75;;;4.80;99.90;;;;;;5013296;28;20034;-68
2022/10/20 01:42:45;;;;;;;8.40;4.07;;;4.80;99.90;;;;;;5013275;28;20091;-69
2022/10/20 01:45:13;;;;;;;11.90;4.13;;;4.80;99.90;;;;;;5013319;28;20450;-69
2022/10/20 01:47:41;;;;;;;10.13;4.07;;;4.80;99.90;;;;;;5013619;28;20389;-69
2022/10/20 01:50:09;;;;;;;7.80;4.60;;;4.80;99.90;;;;;;5013126;28;20037;-69
2022/10/20 01:52:34;;;;;;;7.18;3.85;;;4.80;99.90;;;;;;5020974;28;20092;-69
2022/10/20 01:55:00;;;;;;;4.88;3.80;;;4.80;99.90;;;;;;5030014;28;20030;-69
2022/10/20 01:58:09;;;;;;;10.82;4.55;;;4.80;99.90;;;;;;5013536;28;20033;-69
2022/10/20 02:00:37;;;;;;;10.80;4.30;;;4.90;99.90;;;;;;5008160;28;20030;-69
2022/10/20 02:03:11;;;;;;;8.63;3.97;;;4.90;99.90;;;;;;5011964;28;20065;-69
2022/10/20 02:06:10;;;;;;;15.77;5.15;;;4.90;99.90;;;;;;5013180;28;20373;-69
2022/10/20 02:08:45;;;;;;;10.07;4.80;;;4.90;99.90;;;;;;5013471;28;20495;-69
2022/10/20 02:11:21;;;;;;;10.40;4.50;;;4.80;99.90;;;;;;5013113;28;20473;-69
2022/10/20 02:13:48;;;;;;;7.25;5.00;;;4.80;99.90;;;;;;5013350;28;20107;-69
2022/10/20 02:16:24;;;;;;;15.57;4.65;;;4.70;99.90;;;;;;5012975;28;20481;-69
2022/10/20 02:18:50;;;;;;;14.80;5.45;;;4.70;99.90;;;;;;5023403;28;20025;-69
2022/10/20 02:21:16;;;;;;;11.80;5.90;;;4.60;99.90;;;;;;5032660;28;20030;-69
2022/10/20 02:23:45;;;;;;;9.68;5.40;;;4.60;99.90;;;;;;5032188;28;20477;-69
2022/10/20 02:26:16;;;;;;;20.20;6.75;;;4.50;99.90;;;;;;5032991;28;20388;-69
2022/10/20 02:28:46;;;;;;;18.05;7.00;;;4.50;99.90;;;;;;5032686;28;20069;-69
2022/10/20 02:31:12;;;;;;;17.98;6.68;;;4.50;99.90;;;;;;5032756;28;20432;-69
2022/10/20 02:33:39;;;;;;;11.15;6.63;;;4.50;99.90;;;;;;5032880;28;20021;-69
2022/10/20 02:36:10;;;;;;;11.80;6.85;;;4.50;99.90;;;;;;5032493;28;20040;-69
2022/10/20 02:38:36;;;;;;;13.73;6.63;;;4.50;99.90;;;;;;5035656;28;20461;-69
2022/10/20 02:41:01;;;;;;;15.02;7.53;;;4.50;99.90;;;;;;5036095;28;20021;-69
2022/10/20 02:43:27;;;;;;;12.45;6.25;;;4.50;99.90;;;;;;5036111;28;20022;-69
2022/10/20 02:45:52;;;;;;;14.13;7.07;;;4.40;99.90;;;;;;5036021;28;20486;-69
2022/10/20 02:48:18;;;;;;;14.02;7.47;;;4.50;99.90;;;;;;5035970;28;20037;-69
2022/10/20 02:50:43;;;;;;;19.90;7.68;;;4.40;99.90;;;;;;5035769;28;20045;-69
2022/10/20 02:53:09;;;;;;;20.73;7.97;;;4.40;99.90;;;;;;5029151;28;20033;-69
2022/10/20 02:55:34;;;;;;;15.60;8.18;;;4.50;99.90;;;;;;5032501;28;20037;-69
2022/10/20 02:58:00;;;;;;;13.38;8.23;;;4.50;99.90;;;;;;5035502;28;20489;-68
2022/10/20 03:00:29;;;;;;;17.60;8.48;;;4.50;99.90;;;;;;5035490;28;20037;-68
2022/10/20 03:02:55;;;;;;;19.15;8.73;;;4.50;99.90;;;;;;5034279;28;20029;-69
2022/10/20 03:05:21;;;;;;;19.00;8.57;;;4.50;99.90;;;;;;5035662;28;20116;-69
2022/10/20 03:07:46;;;;;;;18.48;8.63;;;4.40;99.90;;;;;;5035876;28;20033;-69
2022/10/20 03:10:12;;;;;;;18.40;8.80;;;4.40;99.90;;;;;;5035491;28;20033;-69
2022/10/20 03:12:37;;;;;;;16.98;8.38;;;4.40;99.90;;;;;;5035536;28;20041;-69
2022/10/20 03:15:03;;;;;;;20.10;9.10;;;4.30;99.90;;;;;;5035416;28;20104;-69
2022/10/20 03:17:29;;;;;;;21.17;8.35;;;4.30;99.90;;;;;;5035275;28;20167;-68
2022/10/20 03:19:54;;;;;;;18.05;7.97;;;4.30;99.90;;;;;;5035410;28;20496;-69
2022/10/20 03:22:20;;;;;;;12.88;7.68;;;4.20;99.90;;;;;;5030144;28;20033;-69
2022/10/20 03:24:45;;;;;;;17.05;8.05;;;4.10;99.90;;;;;;5015526;28;20105;-69
2022/10/20 03:27:11;;;;;;;15.60;7.45;;;4.10;99.90;;;;;;5015512;28;20097;-69
2022/10/20 03:29:36;;;;;;;12.77;6.57;;;4.10;99.90;;;;;;5015700;28;20032;-69
2022/10/20 03:32:02;;;;;;;18.00;7.97;;;4.00;99.90;;;;;;5015345;28;20473;-69
2022/10/20 03:34:27;;;;;;;18.27;7.93;;;3.90;99.90;;;;;;5015648;28;20036;-69
2022/10/20 03:36:53;;;;;;;14.00;7.30;;;3.90;99.90;;;;;;5015250;28;20440;-69
2022/10/20 03:39:19;;;;;;;14.65;7.47;;;3.90;99.90;;;;;;5015565;28;20048;-69
2022/10/20 03:41:44;;;;;;;23.52;7.75;;;3.90;99.90;;;;;;5015199;28;20484;-69
2022/10/20 03:44:10;;;;;;;16.98;7.55;;;3.90;99.90;;;;;;5015734;28;20080;-69
2022/10/20 03:46:35;;;;;;;17.95;8.13;;;3.90;99.90;;;;;;5015149;28;20113;-69
2022/10/20 03:49:01;;;;;;;18.40;8.15;;;3.90;99.90;;;;;;5015397;28;20116;-69
2022/10/20 03:51:27;;;;;;;20.08;8.40;;;3.80;99.90;;;;;;5015022;28;20044;-69
2022/10/20 03:53:52;;;;;;;23.08;7.57;;;3.90;99.90;;;;;;5015002;28;20028;-69
2022/10/20 03:56:19;;;;;;;14.02;7.15;;;3.90;99.90;;;;;;5014997;28;20022;-69
2022/10/20 03:58:45;;;;;;;16.02;7.63;;;3.90;99.90;;;;;;5015194;28;20496;-69
2022/10/20 04:01:20;;;;;;;15.25;7.68;;;3.90;99.90;;;;;;5015058;28;20028;-69
2022/10/20 04:03:45;;;;;;;16.25;8.15;;;3.90;99.90;;;;;;5018400;28;20030;-68
2022/10/20 04:06:14;;;;;;;16.02;7.75;;;3.80;99.90;;;;;;5034528;28;20374;-69
2022/10/20 04:08:40;;;;;;;17.83;8.30;;;3.90;99.90;;;;;;5034472;28;20526;-69
2022/10/20 04:11:06;;;;;;;16.13;7.25;;;3.90;99.90;;;;;;5034272;28;20114;-68
2022/10/20 04:13:31;;;;;;;16.02;7.32;;;3.80;99.90;;;;;;5032237;28;20034;-68
2022/10/20 04:15:57;;;;;;;14.77;7.05;;;3.80;99.90;;;;;;5034590;28;20139;-69
2022/10/20 04:18:22;;;;;;;14.75;6.30;;;3.80;99.90;;;;;;5034559;28;20021;-69
2022/10/20 04:20:48;;;;;;;13.05;6.68;;;3.80;99.90;;;;;;5029696;28;20026;-68
2022/10/20 04:23:14;;;;;;;14.68;6.55;;;3.70;99.90;;;;;;5031933;28;20401;-69
2022/10/20 04:25:47;;;;;;;10.75;6.55;;;3.70;99.90;;;;;;5027703;28;20022;-68
2022/10/20 04:28:17;;;;;;;11.70;5.35;;;3.60;99.90;;;;;;5014474;28;20478;-69
2022/10/20 04:30:44;;;;;;;11.73;5.60;;;3.50;99.90;;;;;;5014217;28;20030;-68
2022/10/20 04:33:10;;;;;;;9.10;5.15;;;3.50;99.90;;;;;;5014304;28;20030;-69
2022/10/20 04:35:36;;;;;;;9.88;5.75;;;3.40;99.90;;;;;;5032487;28;20381;-69
2022/10/20 04:38:01;;;;;;;9.70;4.80;;;3.40;99.90;;;;;;5034144;28;20020;-69
2022/10/20 04:40:27;;;;;;;8.20;5.90;;;3.40;99.90;;;;;;5033796;28;20083;-69
2022/10/20 04:42:52;;;;;;;9.38;5.35;;;3.40;99.90;;;;;;5034155;28;20373;-69
2022/10/20 04:45:18;;;;;;;10.30;5.43;;;3.30;99.90;;;;;;5033842;28;20025;-69
2022/10/20 04:47:43;;;;;;;12.57;5.88;;;3.30;99.90;;;;;;5031513;28;20074;-68
2022/10/20 04:50:09;;;;;;;13.50;5.82;;;3.30;99.90;;;;;;5033593;28;20400;-69
2022/10/20 04:52:34;;;;;;;15.38;6.70;;;3.30;99.90;;;;;;5033700;28;20052;-69
2022/10/20 04:55:00;;;;;;;8.85;5.70;;;3.20;99.90;;;;;;5032543;28;20021;-68
2022/10/20 04:57:26;;;;;;;8.68;5.53;;;3.30;99.90;;;;;;5016310;28;20486;-69
2022/10/20 04:59:51;;;;;;;10.38;5.60;;;3.20;99.90;;;;;;5013269;28;20520;-69
2022/10/20 05:02:17;;;;;;;14.00;6.78;;;3.20;99.90;;;;;;5027834;28;20079;-69
2022/10/20 05:04:43;;;;;;;10.70;5.97;;;3.20;99.90;;;;;;5031318;28;20072;-68
2022/10/20 05:07:08;;;;;;;21.15;6.63;;;3.20;99.90;;;;;;5033495;28;20071;-69
2022/10/20 05:09:34;;;;;;;10.55;6.03;;;3.20;99.90;;;;;;5027118;28;20045;-69
2022/10/20 05:11:59;;;;;;;9.55;5.45;;;3.30;99.90;;;;;;5013664;28;20021;-69
2022/10/20 05:14:25;;;;;;;11.52;7.22;;;3.30;99.90;;;;;;5013647;28;20092;-69
2022/10/20 05:16:51;;;;;;;18.25;7.20;;;3.40;99.90;;;;;;5013452;28;20030;-69
2022/10/20 05:19:17;;;;;;;12.63;6.88;;;3.50;99.90;;;;;;5026892;28;20071;-68
2022/10/20 05:21:43;;;;;;;13.43;7.57;;;3.50;99.90;;;;;;5031157;28;20025;-68
2022/10/20 05:24:13;;;;;;;20.65;8.27;;;3.60;99.90;;;;;;5033258;28;20152;-68
2022/10/20 05:26:38;;;;;;;19.27;7.78;;;3.60;99.90;;;;;;5023560;28;20116;-69
2022/10/20 05:29:05;;;;;;;13.50;7.05;;;3.70;99.90;;;;;;5013495;28;20081;-68
2022/10/20 05:31:31;;;;;;;16.25;7.28;;;3.70;99.90;;;;;;5015230;28;20492;-69
2022/10/20 05:33:57;;;;;;;16.33;8.05;;;3.70;99.90;;;;;;5013710;28;20029;-69
2022/10/20 05:36:26;;;;;;;19.10;7.68;;;3.80;99.90;;;;;;5013372;28;20112;-69
2022/10/20 05:38:53;;;;;;;17.45;8.93;;;3.80;99.90;;;;;;5031604;28;20029;-69
2022/10/20 05:41:21;;;;;;;15.60;8.15;;;3.90;99.90;;;;;;5033065;28;20459;-69
2022/10/20 05:43:51;;;;;;;14.70;7.55;;;3.90;99.90;;;;;;5033063;28;20025;-68
2022/10/20 05:46:18;;;;;;;18.38;7.57;;;3.90;99.90;;;;;;5031826;28;20036;-69
2022/10/20 05:48:44;;;;;;;19.92;7.90;;;3.90;99.90;;;;;;5032921;28;20034;-68
2022/10/20 05:51:18;;;;;;;19.55;8.95;;;3.90;99.90;;;;;;5031568;28;20039;-69
2022/10/20 05:53:45;;;;;;;16.58;8.23;;;4.00;99.90;;;;;;5027286;28;20104;-68
2022/10/20 05:56:13;;;;;;;18.17;8.07;;;4.00;99.90;;;;;;5013182;28;20129;-69
2022/10/20 05:58:40;;;;;;;20.40;8.73;;;4.00;99.90;;;;;;5013082;28;20068;-68
2022/10/20 06:01:10;;;;;;;18.92;8.73;;;4.00;99.90;;;;;;5013078;28;20524;-68
2022/10/20 06:03:36;;;;;;;28.60;8.52;;;4.10;99.90;;;;;;5013404;28;20030;-69
2022/10/20 06:06:03;;;;;;;21.75;7.10;;;4.10;99.90;;;;;;5028589;28;20091;-68
2022/10/20 06:08:31;;;;;;;13.07;7.80;;;4.00;99.90;;;;;;5032872;28;20037;-68
2022/10/20 06:11:00;;;;;;;13.98;8.35;;;4.00;99.90;;;;;;5029549;28;20017;-68
2022/10/20 06:13:26;;;;;;;15.00;7.13;;;4.00;99.90;;;;;;5036902;28;20022;-68
2022/10/20 06:15:52;;;;;;;16.52;7.43;;;4.10;99.90;;;;;;5035659;28;20034;-68
2022/10/20 06:18:17;;;;;;;13.73;6.78;;;4.10;99.90;;;;;;5017010;28;20022;-68
2022/10/20 06:20:43;;;;;;;14.10;7.70;;;4.10;99.90;;;;;;5016932;28;20120;-69
2022/10/20 06:23:08;;;;;;;14.65;7.88;;;4.10;99.90;;;;;;5031554;28;20025;-68
2022/10/20 06:25:34;;;;;;;19.55;8.30;;;4.10;99.90;;;;;;5036685;28;20127;-68
2022/10/20 06:27:59;;;;;;;19.75;7.95;;;4.10;99.90;;;;;;5030889;28;20025;-68
2022/10/20 06:30:25;;;;;;;12.48;6.22;;;4.20;99.90;;;;;;5036483;28;20033;-69
2022/10/20 06:32:54;;;;;;;14.43;6.75;;;4.30;99.90;;;;;;5033400;28;20046;-68
2022/10/20 06:35:19;;;;;;;19.73;7.45;;;4.30;99.90;;;;;;5036153;28;20034;-69
2022/10/20 06:37:45;;;;;;;14.82;6.93;;;4.40;99.90;;;;;;5035792;28;20036;-68
2022/10/20 06:40:11;;;;;;;10.65;6.63;;;4.40;99.90;;;;;;5032068;28;20480;-69
2022/10/20 06:42:36;;;;;;;15.77;7.18;;;4.50;99.90;;;;;;5036356;28;20084;-69
2022/10/20 06:45:02;;;;;;;13.75;6.68;;;4.50;99.90;;;;;;5024525;28;20509;-69
2022/10/20 06:47:29;;;;;;;19.80;6.40;;;4.60;99.90;;;;;;5018054;28;20056;-69
2022/10/20 06:49:55;;;;;;;14.38;6.22;;;4.70;99.90;;;;;;5016583;28;20040;-69
2022/10/20 06:52:20;;;;;;;19.38;6.78;;;4.80;99.90;;;;;;5017984;28;20029;-68
2022/10/20 06:54:46;;;;;;;11.48;6.53;;;5.00;99.90;;;;;;5036050;28;20040;-69
2022/10/20 06:57:11;;;;;;;21.25;7.10;;;5.10;99.90;;;;;;5035763;28;20366;-68
2022/10/20 06:59:37;;;;;;;21.27;7.63;;;5.20;99.90;;;;;;5028398;28;20029;-69
2022/10/20 07:02:03;;;;;;;13.85;6.90;;;5.20;99.90;;;;;;5035667;28;20100;-69
2022/10/20 07:04:28;;;;;;;16.13;6.53;;;5.30;99.90;;;;;;5026473;28;20168;-68
2022/10/20 07:06:54;;;;;;;15.60;7.03;;;5.40;99.90;;;;;;5034504;28;20033;-69
2022/10/20 07:09:19;;;;;;;29.00;6.82;;;5.50;99.90;;;;;;5029614;28;20052;-69
2022/10/20 07:11:50;;;;;;;18.55;6.80;;;5.60;99.90;;;;;;5025732;28;20037;-69
2022/10/20 07:14:15;;;;;;;15.23;7.18;;;5.80;99.90;;;;;;5023171;28;20037;-69
2022/10/20 07:16:41;;;;;;;20.55;8.02;;;6.00;99.90;;;;;;5035656;28;20439;-69
2022/10/20 07:19:06;;;;;;;16.70;7.88;;;6.10;99.90;;;;;;5035450;28;20105;-69
2022/10/20 07:21:32;;;;;;;18.38;7.82;;;6.30;99.90;;;;;;5034645;28;20446;-68
2022/10/20 07:24:00;;;;;;;26.67;6.88;;;6.40;99.90;;;;;;5033822;28;20029;-69
2022/10/20 07:26:27;;;;;;;19.50;7.03;;;6.50;99.90;;;;;;5035368;28;20029;-69
2022/10/20 07:28:56;;;;;;;21.13;7.35;;;6.50;99.90;;;;;;5032088;28;20116;-69
2022/10/20 07:31:27;;;;;;;19.50;7.43;;;6.60;99.90;;;;;;5035329;28;20550;-69
2022/10/20 07:33:54;;;;;;;15.57;7.18;;;6.70;99.90;;;;;;5022246;28;20473;-69
2022/10/20 07:36:25;;;;;;;14.73;6.80;;;6.70;99.90;;;;;;5015550;28;20036;-69
2022/10/20 07:38:53;;;;;;;21.63;6.43;;;6.70;99.90;;;;;;5024205;28;20025;-69
2022/10/20 07:41:19;;;;;;;16.83;6.45;;;6.90;99.90;;;;;;5034798;28;20052;-69
2022/10/20 07:43:44;;;;;;;14.48;6.10;;;7.00;99.90;;;;;;5035203;28;20457;-69
2022/10/20 07:46:11;;;;;;;9.98;6.00;;;7.10;99.90;;;;;;5034969;28;20112;-69
2022/10/20 07:48:37;;;;;;;13.50;6.60;;;7.20;99.90;;;;;;5035147;28;20068;-69
2022/10/20 07:51:15;;;;;;;15.88;6.00;;;7.30;99.90;;;;;;5034859;28;20037;-69
2022/10/20 07:53:41;;;;;;;14.63;5.50;;;7.40;99.90;;;;;;5034908;28;20025;-70
2022/10/20 07:56:06;;;;;;;9.82;4.97;;;7.60;99.90;;;;;;5021436;28;20527;-70
2022/10/20 07:58:32;;;;;;;18.25;5.78;;;7.80;99.90;;;;;;5014881;28;20026;-70
2022/10/20 08:00:57;;;;;;;20.58;6.07;;;7.90;99.90;;;;;;5022656;28;20109;-70
2022/10/20 08:03:23;;;;;;;12.98;5.68;;;8.10;99.90;;;;;;5034958;28;20112;-70
2022/10/20 08:05:49;;;;;;;11.40;5.03;;;8.20;99.90;;;;;;5034137;28;20029;-69
2022/10/20 08:08:14;;;;;;;12.38;4.57;;;8.20;99.90;;;;;;5034579;28;20025;-69
2022/10/20 08:10:40;;;;;;;17.10;4.93;;;8.30;99.90;;;;;;5034871;28;20033;-69
2022/10/20 08:13:05;;;;;;;12.63;5.35;;;8.40;99.90;;;;;;5017116;28;20030;-69
2022/10/20 08:15:31;;;;;;;13.38;4.07;;;8.30;99.90;;;;;;5014855;28;20062;-70
2022/10/20 08:17:56;;;;;;;9.93;4.22;;;8.50;99.90;;;;;;5024942;28;20022;-70
2022/10/20 08:20:22;;;;;;;11.07;3.75;;;8.60;99.90;;;;;;5014944;28;20033;-70
2022/10/20 08:22:47;;;;;;;12.05;4.00;;;8.70;99.90;;;;;;5014525;28;20025;-70
2022/10/20 08:25:14;;;;;;;12.00;3.92;;;8.70;99.90;;;;;;5014427;28;20026;-69
2022/10/20 08:27:39;;;;;;;8.40;3.33;;;8.70;99.90;;;;;;5014640;28;20117;-69
2022/10/20 08:30:05;;;;;;;8.23;3.17;;;8.80;99.90;;;;;;5032921;28;20115;-69
2022/10/20 08:32:31;;;;;;;10.05;3.08;;;8.90;99.90;;;;;;5028431;28;20033;-69
2022/10/20 08:34:56;;;;;;;13.40;3.35;;;9.00;99.90;;;;;;5033053;28;20038;-69
2022/10/20 08:37:22;;;;;;;10.77;3.97;;;8.90;99.90;;;;;;5030671;28;20097;-69
2022/10/20 08:39:47;;;;;;;15.77;3.58;;;9.00;99.90;;;;;;5034240;28;20025;-69
2022/10/20 08:42:13;;;;;;;10.27;3.00;;;9.00;99.90;;;;;;5029369;28;20481;-68
2022/10/20 08:44:43;;;;;;;12.20;2.85;;;9.10;99.90;;;;;;5033846;28;20036;-69
2022/10/20 08:47:20;;;;;;;4.18;2.20;;;9.20;99.90;;;;;;5033369;28;20041;-67
2022/10/20 08:49:45;;;;;;;7.60;2.70;;;9.20;99.90;;;;;;5016110;28;20022;-69
2022/10/20 08:52:14;;;;;;;5.60;2.75;;;9.30;99.90;;;;;;5026730;28;20056;-69
2022/10/20 08:54:39;;;;;;;8.05;2.55;;;9.30;99.90;;;;;;5033734;28;20028;-69
2022/10/20 08:57:19;;;;;;;7.70;2.60;;;9.40;99.90;;;;;;5034143;28;20029;-69
2022/10/20 08:59:45;;;;;;;11.90;2.22;;;9.40;99.90;;;;;;5014802;28;20076;-69
2022/10/20 09:02:16;;;;;;;9.50;2.85;;;9.50;99.90;;;;;;5013777;28;20022;-69
2022/10/20 09:04:48;;;;;;;4.53;2.50;;;9.50;99.90;;;;;;5022376;28;20028;-69
2022/10/20 09:07:34;;;;;;;6.10;2.53;;;9.60;99.90;;;;;;5033548;28;20572;-69
2022/10/20 09:10:23;;;;;;;11.05;2.42;;;9.70;99.90;;;;;;5027943;28;20061;-69
2022/10/20 09:12:49;;;;;;;11.02;2.13;;;9.90;99.90;;;;;;5013671;28;20516;-69
2022/10/20 09:15:17;;;;;;;7.15;2.10;;;9.90;99.90;;;;;;5016065;28;20033;-69
2022/10/20 09:17:49;;;;;;;7.00;2.30;;;10.00;99.90;;;;;;5013683;28;20029;-70
2022/10/20 09:20:40;;;;;;;4.50;2.30;;;10.10;99.90;;;;;;5013498;28;20020;-69
2022/10/20 09:23:11;;;;;;;13.07;2.10;;;10.10;99.90;;;;;;5022737;28;20037;-70
2022/10/20 09:25:36;;;;;;;5.80;3.00;;;10.20;99.90;;;;;;5033319;28;20132;-70
2022/10/20 09:28:02;;;;;;;9.18;2.50;;;10.30;99.90;;;;;;5033059;28;20029;-69
2022/10/20 09:30:27;;;;;;;6.40;2.45;;;10.30;99.90;;;;;;5033179;28;20151;-70
2022/10/20 09:32:53;;;;;;;10.45;2.63;;;10.40;99.90;;;;;;5033227;28;20112;-69
2022/10/20 09:35:23;;;;;;;6.03;1.95;;;10.40;99.90;;;;;;5017083;28;20026;-69
2022/10/20 09:37:57;;;;;;;7.07;2.85;;;10.60;99.90;;;;;;5012198;28;20030;-70
2022/10/20 09:40:25;;;;;;;;;;;10.80;99.90;;;;;;5026536;28;20413;-69
2022/10/20 09:42:54;;;;;;;6.75;2.00;;;10.80;99.90;;;;;;5033133;28;20276;-69
2022/10/20 09:45:27;;;;;;;9.52;2.25;;;10.90;99.90;;;;;;5031081;28;20051;-69
2022/10/20 09:47:57;;;;;;;11.50;2.53;;;11.10;99.90;;;;;;5037017;28;20025;-69
2022/10/20 09:50:30;;;;;;;10.05;2.08;;;11.20;99.90;;;;;;5036684;28;20444;-69
2022/10/20 09:52:59;;;;;;;7.10;2.30;;;11.30;99.90;;;;;;5037485;28;20088;-70
2022/10/20 09:55:28;;;;;;;3.53;1.95;;;11.30;99.90;;;;;;5037205;28;20030;-69
2022/10/20 09:57:55;;;;;;;7.57;2.15;;;11.40;99.90;;;;;;5037524;28;20372;-70
2022/10/20 10:00:33;;;;;;;3.70;2.13;;;11.50;99.90;;;;;;5036853;28;20035;-70
2022/10/20 10:03:20;;;;;;;4.97;2.05;;;11.40;99.90;;;;;;5036842;28;20031;-70
2022/10/20 10:05:49;;;;;;;7.78;2.83;;;11.30;99.90;;;;;;5037116;28;20037;-70
2022/10/20 10:08:16;;;;;;;12.45;2.20;;;11.40;99.90;;;;;;5023304;28;20030;-70
2022/10/20 10:10:44;;;;;;;12.50;3.17;;;11.30;99.90;;;;;;5017190;28;20034;-69
2022/10/20 10:13:23;;;;;;;8.02;2.33;;;11.20;99.90;;;;;;5027107;28;20029;-69
2022/10/20 10:16:08;;;;;;;8.55;1.95;;;11.20;99.90;;;;;;5036907;28;20124;-69
2022/10/20 10:18:36;;;;;;;10.60;1.85;;;11.30;99.90;;;;;;5031929;28;20100;-69
2022/10/20 10:21:14;;;;;;;9.35;2.38;;;11.20;99.90;;;;;;5036744;28;20104;-69
2022/10/20 10:23:53;;;;;;;2.13;1.75;;;11.40;99.90;;;;;;5031349;28;20485;-70
2022/10/20 10:26:32;;;;;;;12.55;2.80;;;11.60;99.90;;;;;;5017009;28;20026;-70
2022/10/20 10:28:58;;;;;;;5.97;2.47;;;11.80;99.90;;;;;;5018904;28;20037;-69
2022/10/20 10:31:25;;;;;;;4.75;2.50;;;11.90;99.90;;;;;;5036322;28;20035;-69
2022/10/20 10:34:17;;;;;;;8.18;2.58;;;12.00;99.90;;;;;;5034819;28;20435;-69
2022/10/20 10:36:42;;;;;;;8.77;2.10;;;12.20;99.90;;;;;;5015206;28;20096;-70
2022/10/20 10:39:14;;;;;;;9.60;2.03;;;12.40;99.90;;;;;;5016449;28;20026;-70
2022/10/20 10:41:55;;;;;;;3.17;1.52;;;12.50;99.90;;;;;;5033005;28;20025;-70
2022/10/20 10:44:49;;;;;;;4.57;2.20;;;12.60;99.90;;;;;;5036465;28;20026;-70
2022/10/20 10:47:53;;;;;;;2.53;1.30;;;12.70;99.90;;;;;;5036399;28;20465;-70
2022/10/20 10:50:26;;;;;;;7.38;2.40;;;12.80;99.90;;;;;;5035683;28;20032;-70
2022/10/20 10:53:19;;;;;;;11.70;2.35;;;12.80;99.90;;;;;;5036287;28;20060;-70
2022/10/20 10:56:20;;;;;;;11.15;1.90;;;12.90;99.90;;;;;;5036181;28;20535;-70
2022/10/20 10:59:11;;;;;;;5.30;1.88;;;13.10;99.90;;;;;;5032786;28;20037;-70
2022/10/20 11:01:56;;;;;;;7.88;2.17;;;13.20;99.90;;;;;;5016307;28;20104;-69
2022/10/20 11:04:27;;;;;;;7.93;2.10;;;13.40;99.90;;;;;;5036109;28;20079;-70
2022/10/20 11:07:16;;;;;;;7.68;2.25;;;13.70;99.90;;;;;;5033802;28;20026;-70
2022/10/20 11:10:02;;;;;;;9.88;2.03;;;13.90;99.90;;;;;;5036011;28;20380;-70
2022/10/20 11:12:55;;;;;;;8.57;3.38;;;14.10;99.90;;;;;;5034328;28;20040;-70
2022/10/20 11:15:32;;;;;;;8.32;1.70;;;14.40;99.90;;;;;;5035515;28;20176;-70
2022/10/20 11:18:10;;;;;;;11.52;2.17;;;14.60;99.90;;;;;;5027495;28;20049;-69
2022/10/20 11:20:54;;;;;;;4.90;1.80;;;14.80;99.90;;;;;;5029111;28;20021;-70
2022/10/20 11:23:41;;;;;;;7.82;1.60;;;15.10;99.90;;;;;;5028695;28;20026;-69
2022/10/20 11:26:54;;;;;;;12.73;1.77;;;15.20;99.90;;;;;;5035209;28;20037;-69
2022/10/20 11:29:32;;;;;;;14.35;1.52;;;15.30;99.90;;;;;;5023662;28;20400;-70
2022/10/20 11:32:06;;;;;;;4.53;1.25;;;15.10;99.90;;;;;;5012730;28;20030;-70
2022/10/20 11:35:04;;;;;;;9.32;1.70;;;14.60;99.90;;;;;;5014541;28;20042;-70
2022/10/20 11:37:40;;;;;;;5.47;1.98;;;14.40;99.90;;;;;;5023806;28;20128;-70
2022/10/20 11:40:08;;;;;;;4.47;1.25;;;14.60;99.90;;;;;;5035614;28;20087;-70
2022/10/20 11:42:56;;;;;;;6.40;1.42;;;14.70;99.90;;;;;;5030742;28;20034;-70
2022/10/20 11:45:50;;;;;;;2.67;1.42;;;14.60;99.90;;;;;;5035360;28;20025;-70
2022/10/20 11:48:37;;;;;;;1.77;1.25;;;14.40;99.90;;;;;;5032831;28;20128;-70
2022/10/20 11:51:08;;;;;;;8.30;1.27;;;14.20;99.90;;;;;;5034846;28;20045;-70
2022/10/20 11:53:54;;;;;;;2.50;1.40;;;14.00;99.90;;;;;;5029632;28;20100;-70
2022/10/20 11:56:33;;;;;;;5.47;1.88;;;13.70;99.90;;;;;;5015229;28;20109;-69
2022/10/20 11:59:24;;;;;;;4.20;1.52;;;13.50;99.90;;;;;;5018499;28;20024;-69
2022/10/20 12:02:28;;;;;;;4.43;1.83;;;13.50;99.90;;;;;;5034689;28;20030;-69
2022/10/20 12:05:29;;;;;;;4.97;1.58;;;13.40;99.90;;;;;;5027591;28;20105;-69
2022/10/20 12:08:12;;;;;;;3.83;1.70;;;13.30;99.90;;;;;;5015052;28;20042;-69
2022/10/20 12:10:40;;;;;;;7.50;2.58;;;13.30;99.90;;;;;;5021897;28;20051;-69
2022/10/20 12:13:25;;;;;;;8.80;1.70;;;13.50;99.90;;;;;;5034472;28;20036;-69
2022/10/20 12:15:51;;;;;;;3.67;1.55;;;13.90;99.90;;;;;;5030749;28;20025;-69
2022/10/20 12:18:32;;;;;;;5.70;2.28;;;14.30;99.90;;;;;;5034328;28;20026;-69
2022/10/20 12:21:06;;;;;;;6.60;1.58;;;14.90;99.90;;;;;;5031117;28;20549;-69
2022/10/20 12:23:44;;;;;;;3.67;1.52;;;15.20;99.90;;;;;;5035073;28;20080;-69
2022/10/20 12:26:28;;;;;;;6.30;1.40;;;15.50;99.90;;;;;;5031021;28;20496;-68
2022/10/20 12:28:58;;;;;;;5.85;2.10;;;15.90;99.90;;;;;;5014443;28;20068;-69
2022/10/20 12:31:24;;;;;;;7.18;1.52;;;16.40;99.90;;;;;;5013959;28;20116;-68
2022/10/20 12:33:52;;;;;;;9.45;1.95;;;16.90;99.90;;;;;;5016883;28;20100;-69
2022/10/20 12:36:18;;;;;;;6.65;1.38;;;17.30;99.90;;;;;;5014209;28;20030;-69
2022/10/20 12:38:46;;;;;;;4.53;1.17;;;17.50;99.90;;;;;;5031933;28;20120;-69
2022/10/20 12:41:26;;;;;;;5.00;1.50;;;17.60;99.90;;;;;;5033867;28;20103;-69
2022/10/20 12:43:53;;;;;;;5.15;1.65;;;17.60;99.90;;;;;;5031615;28;20033;-69
2022/10/20 12:46:26;;;;;;;5.63;1.40;;;17.60;99.90;;;;;;5032633;28;20034;-69
2022/10/20 12:48:57;;;;;;;4.63;1.45;;;17.90;99.90;;;;;;5022469;28;20124;-69
2022/10/20 12:51:39;;;;;;;3.50;1.38;;;18.00;99.90;;;;;;5013953;28;20046;-69
2022/10/20 12:54:34;;;;;;;6.28;1.20;;;18.10;99.90;;;;;;5023275;28;20036;-69
2022/10/20 12:57:25;;;;;;;4.82;1.77;;;18.10;99.90;;;;;;5031471;28;20033;-69
2022/10/20 12:59:51;;;;;;;5.93;1.63;;;17.90;99.90;;;;;;5024168;28;20104;-69
2022/10/20 13:02:16;;;;;;;4.90;1.42;;;17.70;99.90;;;;;;5013826;28;20077;-69
2022/10/20 13:05:04;;;;;;;6.50;1.63;;;17.60;99.90;;;;;;5014171;28;20033;-69
2022/10/20 13:07:45;;;;;;;7.97;1.90;;;17.90;99.90;;;;;;5013843;28;20025;-69